Time;durP1;ratioP1;P1;durP2;ratioP2;P2;SDS_P1;SDS_P2;PMS_P1;PMS_P2;Temp;Humidity;BMP_temperature;BMP_pressure;BME280_temperature;BME280_humidity;BME280_pressure;Samples;Min_cycle;Max_cycle;Signal;HPM_P1;HPM_P2
2023/11/29 00:00:32;;;;;;;13.13;3.57;;;24.80;78.30;;;;;;4990649;28;20182;-72
2023/11/29 00:02:59;;;;;;;15.83;4.30;;;24.80;79.30;;;;;;4992578;28;20195;-71
2023/11/29 00:05:26;;;;;;;8.53;3.37;;;24.80;79.10;;;;;;4992909;28;20675;-70
2023/11/29 00:07:54;;;;;;;8.20;2.93;;;24.70;78.70;;;;;;4993345;28;20217;-74
2023/11/29 00:10:22;;;;;;;15.50;3.77;;;24.70;78.50;;;;;;4993334;28;20189;-68
2023/11/29 00:12:49;;;;;;;10.03;3.47;;;24.70;78.60;;;;;;4993416;28;20315;-70
2023/11/29 00:15:17;;;;;;;12.87;3.53;;;24.80;77.60;;;;;;4993345;28;20271;-68
2023/11/29 00:17:44;;;;;;;12.50;3.17;;;24.80;77.60;;;;;;4993014;28;20221;-69
2023/11/29 00:20:12;;;;;;;12.03;3.27;;;25.00;77.30;;;;;;4977046;28;20197;-70
2023/11/29 00:22:39;;;;;;;11.97;3.20;;;25.10;76.50;;;;;;4992447;28;20197;-69
2023/11/29 00:25:07;;;;;;;9.37;2.90;;;25.20;76.00;;;;;;4992665;28;20225;-71
2023/11/29 00:27:35;;;;;;;10.30;2.97;;;25.00;75.90;;;;;;4991514;28;20205;-72
2023/11/29 00:30:03;;;;;;;17.53;3.37;;;24.80;76.10;;;;;;4995178;28;20318;-72
2023/11/29 00:32:30;;;;;;;9.33;2.73;;;24.70;76.10;;;;;;4992200;28;20197;-70
2023/11/29 00:34:57;;;;;;;9.57;2.70;;;25.00;75.60;;;;;;4990981;28;20276;-69
2023/11/29 00:37:24;;;;;;;11.47;2.47;;;25.00;75.60;;;;;;4992932;28;20186;-72
2023/11/29 00:39:52;;;;;;;10.60;2.10;;;25.10;74.10;;;;;;4993378;28;20201;-71
2023/11/29 00:42:19;;;;;;;11.37;2.30;;;25.40;73.80;;;;;;4993121;28;20308;-74
2023/11/29 00:44:47;;;;;;;8.60;2.30;;;25.70;72.60;;;;;;4993594;28;20603;-73
2023/11/29 00:47:15;;;;;;;10.30;2.10;;;25.80;71.60;;;;;;4992532;28;20182;-73
2023/11/29 00:49:42;;;;;;;11.17;2.23;;;25.80;72.60;;;;;;4993050;28;20237;-72
2023/11/29 00:52:10;;;;;;;13.77;2.40;;;25.70;73.00;;;;;;4992889;28;20647;-73
2023/11/29 00:54:37;;;;;;;11.97;2.80;;;25.80;71.40;;;;;;4992083;28;20640;-74
2023/11/29 00:57:04;;;;;;;13.93;2.87;;;25.40;72.50;;;;;;4986722;28;20194;-74
2023/11/29 00:59:32;;;;;;;9.80;2.37;;;25.50;73.00;;;;;;4990142;28;20194;-71
2023/11/29 01:01:59;;;;;;;11.80;2.90;;;25.40;72.90;;;;;;4986226;28;20182;-71
2023/11/29 01:04:27;;;;;;;9.27;2.80;;;25.70;72.40;;;;;;4991986;28;20660;-76
2023/11/29 01:06:54;;;;;;;11.80;2.77;;;25.40;71.70;;;;;;4991897;28;20201;-70
2023/11/29 01:09:21;;;;;;;10.10;2.93;;;25.50;71.40;;;;;;4992308;28;20216;-69
2023/11/29 01:11:49;;;;;;;9.63;2.50;;;25.90;71.60;;;;;;4992748;28;20220;-77
2023/11/29 01:14:16;;;;;;;10.83;2.67;;;26.30;70.20;;;;;;4990090;28;20264;-71
2023/11/29 01:16:43;;;;;;;12.53;2.43;;;26.30;69.20;;;;;;4992617;28;20186;-73
2023/11/29 01:19:10;;;;;;;17.03;2.90;;;26.30;68.40;;;;;;4981694;28;20622;-74
2023/11/29 01:21:38;;;;;;;12.63;2.93;;;25.90;69.70;;;;;;4987723;28;20737;-73
2023/11/29 01:24:06;;;;;;;12.40;2.43;;;25.90;69.90;;;;;;4988624;28;20265;-73
2023/11/29 01:26:34;;;;;;;9.53;2.70;;;25.70;70.00;;;;;;4993223;28;20205;-75
2023/11/29 01:29:01;;;;;;;11.83;2.70;;;25.80;70.50;;;;;;4989163;28;20329;-73
2023/11/29 01:31:29;;;;;;;12.37;2.43;;;25.60;70.40;;;;;;4978524;28;20183;-76
2023/11/29 01:33:57;;;;;;;12.63;2.63;;;25.80;70.50;;;;;;4991527;28;20217;-73
2023/11/29 01:36:24;;;;;;;10.53;2.27;;;26.00;68.90;;;;;;4992401;28;20538;-73
2023/11/29 01:38:52;;;;;;;8.30;2.20;;;26.30;69.10;;;;;;4992643;28;20273;-73
2023/11/29 01:41:19;;;;;;;8.73;1.80;;;26.30;68.10;;;;;;4990647;28;20178;-73
2023/11/29 01:43:47;;;;;;;6.33;1.70;;;26.00;68.70;;;;;;4987947;28;20177;-71
2023/11/29 01:46:14;;;;;;;8.40;2.40;;;26.30;67.90;;;;;;4992976;28;20174;-74
2023/11/29 01:48:42;;;;;;;13.40;1.87;;;26.30;68.10;;;;;;4992322;28;20216;-73
2023/11/29 01:51:09;;;;;;;8.10;2.07;;;26.30;68.20;;;;;;4992363;28;20193;-73
2023/11/29 01:53:37;;;;;;;7.03;1.87;;;26.30;69.50;;;;;;4989801;28;20328;-74
2023/11/29 01:56:05;;;;;;;11.23;2.33;;;26.30;69.40;;;;;;4987265;28;20191;-73
2023/11/29 01:58:32;;;;;;;12.73;2.47;;;26.50;68.60;;;;;;4992347;28;20198;-73
2023/11/29 02:00:59;;;;;;;12.50;3.23;;;26.70;68.30;;;;;;4992085;28;20214;-75
2023/11/29 02:03:28;;;;;;;7.17;1.93;;;26.70;69.10;;;;;;4990053;28;20190;-72
2023/11/29 02:05:55;;;;;;;12.40;2.53;;;26.80;68.50;;;;;;4992370;28;20186;-77
2023/11/29 02:08:23;;;;;;;10.17;2.47;;;26.90;68.30;;;;;;4991880;28;20256;-73
2023/11/29 02:10:50;;;;;;;8.03;2.20;;;26.90;67.40;;;;;;4984788;28;20182;-74
2023/11/29 02:13:18;;;;;;;9.03;2.60;;;26.90;68.10;;;;;;4992860;28;20232;-72
2023/11/29 02:15:45;;;;;;;10.37;2.57;;;27.10;68.00;;;;;;4992053;28;20185;-73
2023/11/29 02:18:13;;;;;;;11.67;2.80;;;27.50;67.30;;;;;;4992247;28;20190;-72
2023/11/29 02:20:40;;;;;;;12.23;3.50;;;27.60;66.90;;;;;;4992906;28;20186;-76
2023/11/29 02:23:26;;;;;;;10.23;2.80;;;27.70;66.80;;;;;;4992218;28;20222;-73
2023/11/29 02:25:54;;;;;;;10.90;2.77;;;27.80;66.40;;;;;;4988055;28;20312;-73
2023/11/29 02:28:22;;;;;;;12.70;2.43;;;27.70;67.30;;;;;;4992353;28;20201;-77
2023/11/29 02:30:49;;;;;;;9.57;2.70;;;27.50;67.10;;;;;;4998530;28;20264;-70
2023/11/29 02:33:16;;;;;;;13.53;2.33;;;27.20;67.50;;;;;;4978593;28;20240;-73
2023/11/29 02:35:44;;;;;;;15.87;3.10;;;27.00;67.90;;;;;;4993509;28;20647;-76
2023/11/29 02:38:11;;;;;;;10.37;2.40;;;27.30;68.70;;;;;;4996031;28;20233;-73
2023/11/29 02:40:39;;;;;;;7.57;2.33;;;27.40;67.40;;;;;;4991461;28;20190;-73
2023/11/29 02:43:06;;;;;;;7.13;2.50;;;27.40;67.30;;;;;;4993206;28;20528;-73
2023/11/29 02:45:33;;;;;;;8.47;2.23;;;27.60;67.30;;;;;;4994647;28;20189;-68
2023/11/29 02:48:01;;;;;;;12.77;2.57;;;27.50;66.70;;;;;;4992391;28;20217;-74
2023/11/29 02:50:28;;;;;;;10.20;2.70;;;27.30;67.00;;;;;;4974948;28;20181;-72
2023/11/29 02:52:55;;;;;;;11.87;2.10;;;27.20;67.50;;;;;;4987874;28;20264;-72
2023/11/29 02:55:23;;;;;;;12.60;2.67;;;26.70;69.40;;;;;;4986579;28;20178;-75
2023/11/29 02:57:50;;;;;;;14.37;2.90;;;26.50;70.00;;;;;;4993488;28;20240;-71
2023/11/29 03:00:18;;;;;;;13.13;3.73;;;26.10;71.90;;;;;;4994109;28;20201;-72
2023/11/29 03:02:45;;;;;;;14.23;2.03;;;26.00;72.60;;;;;;4990958;28;20270;-71
2023/11/29 03:05:12;;;;;;;13.80;3.13;;;25.90;72.60;;;;;;4990472;28;20660;-72
2023/11/29 03:07:40;;;;;;;12.47;3.10;;;25.80;72.70;;;;;;4992985;28;20194;-72
2023/11/29 03:10:08;;;;;;;14.30;2.43;;;25.60;73.50;;;;;;4990473;28;20202;-71
2023/11/29 03:12:35;;;;;;;11.03;2.53;;;25.20;74.80;;;;;;4993676;28;20186;-68
2023/11/29 03:15:02;;;;;;;13.13;2.47;;;24.80;75.90;;;;;;4990255;28;20198;-71
2023/11/29 03:17:30;;;;;;;7.87;2.70;;;24.60;76.90;;;;;;4993542;28;20632;-71
2023/11/29 03:19:57;;;;;;;11.90;2.43;;;24.60;77.60;;;;;;4990322;28;20189;-71
2023/11/29 03:22:24;;;;;;;13.00;2.80;;;24.50;77.50;;;;;;4994488;28;20306;-73
2023/11/29 03:24:57;;;;;;;16.00;2.77;;;24.30;77.90;;;;;;4992875;28;20275;-72
2023/11/29 03:27:24;;;;;;;10.90;1.97;;;24.40;78.20;;;;;;4993224;28;20233;-72
2023/11/29 03:29:51;;;;;;;16.57;2.80;;;24.30;78.40;;;;;;4993929;28;20186;-73
2023/11/29 03:32:19;;;;;;;12.13;3.40;;;24.30;78.20;;;;;;4992971;28;20257;-72
2023/11/29 03:34:46;;;;;;;15.00;3.33;;;24.30;78.80;;;;;;4994330;28;20182;-75
2023/11/29 03:37:14;;;;;;;12.40;2.53;;;24.20;79.10;;;;;;4992575;28;20250;-73
2023/11/29 03:39:44;;;;;;;16.57;3.47;;;24.10;79.60;;;;;;4994392;28;20182;-73
2023/11/29 03:42:12;;;;;;;14.23;2.90;;;24.00;80.00;;;;;;4992304;28;20185;-73
2023/11/29 03:44:39;;;;;;;11.53;2.70;;;23.80;80.00;;;;;;4990929;28;20519;-73
2023/11/29 03:47:06;;;;;;;14.63;2.93;;;23.80;80.90;;;;;;4990308;28;20644;-72
2023/11/29 03:49:34;;;;;;;11.00;2.53;;;23.80;81.20;;;;;;4987811;28;20218;-74
2023/11/29 03:52:01;;;;;;;12.47;2.70;;;23.80;81.10;;;;;;4991665;28;20186;-74
2023/11/29 03:54:29;;;;;;;10.40;2.00;;;23.80;80.90;;;;;;4990945;28;20185;-72
2023/11/29 03:56:56;;;;;;;16.20;3.10;;;23.80;80.80;;;;;;4986847;28;20181;-71
2023/11/29 03:59:23;;;;;;;15.80;3.40;;;23.70;81.30;;;;;;4988032;28;20182;-73
2023/11/29 04:01:50;;;;;;;13.63;3.13;;;23.70;81.00;;;;;;4986753;28;20190;-70
2023/11/29 04:04:18;;;;;;;12.53;2.97;;;23.70;81.30;;;;;;4987537;28;20552;-69
2023/11/29 04:06:45;;;;;;;13.30;3.30;;;23.80;81.30;;;;;;4991443;28;20193;-74
2023/11/29 04:09:12;;;;;;;13.67;2.87;;;23.70;81.10;;;;;;4991902;28;20544;-71
2023/11/29 04:11:40;;;;;;;19.23;3.43;;;23.80;81.70;;;;;;4990982;28;20227;-69
2023/11/29 04:14:07;;;;;;;13.50;3.37;;;23.70;81.20;;;;;;4991708;28;20264;-74
2023/11/29 04:16:35;;;;;;;12.17;3.20;;;23.70;81.20;;;;;;4989191;28;20193;-73
2023/11/29 04:19:02;;;;;;;15.80;3.27;;;23.60;81.20;;;;;;4991983;28;20174;-71
2023/11/29 04:21:35;;;;;;;17.17;3.43;;;23.50;81.40;;;;;;4992097;28;20320;-73
2023/11/29 04:24:03;;;;;;;11.57;3.20;;;23.30;81.90;;;;;;4993124;28;20232;-71
2023/11/29 04:26:41;;;;;;;14.37;3.00;;;23.40;82.30;;;;;;4993323;28;20204;-72
2023/11/29 04:29:11;;;;;;;14.63;3.10;;;23.30;82.30;;;;;;4989005;28;20238;-71
2023/11/29 04:31:39;;;;;;;11.57;2.97;;;23.30;82.00;;;;;;4991817;28;20222;-73
2023/11/29 04:34:08;;;;;;;17.93;3.57;;;23.30;82.30;;;;;;4990577;28;20193;-71
2023/11/29 04:36:35;;;;;;;12.37;3.63;;;23.20;82.50;;;;;;4992854;28;20228;-72
2023/11/29 04:39:05;;;;;;;16.63;2.90;;;23.20;83.30;;;;;;4982552;28;20575;-69
2023/11/29 04:41:32;;;;;;;16.40;3.27;;;23.20;83.50;;;;;;4991482;28;20178;-69
2023/11/29 04:44:00;;;;;;;13.90;3.57;;;23.10;83.30;;;;;;4992763;28;20600;-71
2023/11/29 04:46:28;;;;;;;14.00;3.30;;;23.10;83.50;;;;;;4988583;28;20636;-70
2023/11/29 04:48:56;;;;;;;14.97;3.63;;;23.20;83.70;;;;;;4988931;28;20240;-72
2023/11/29 04:51:23;;;;;;;10.07;3.07;;;23.10;83.70;;;;;;4987058;28;20201;-71
2023/11/29 04:53:51;;;;;;;14.80;3.90;;;23.10;83.80;;;;;;4998941;28;20341;-73
2023/11/29 04:56:19;;;;;;;25.77;4.63;;;23.00;83.50;;;;;;4992361;28;20189;-68
2023/11/29 04:58:46;;;;;;;17.77;3.90;;;22.90;83.90;;;;;;4991546;28;20178;-70
2023/11/29 05:01:15;;;;;;;14.13;3.47;;;22.90;84.00;;;;;;4991353;28;20182;-71
2023/11/29 05:03:42;;;;;;;18.47;4.10;;;22.80;84.00;;;;;;4991072;28;20645;-71
2023/11/29 05:06:10;;;;;;;19.90;4.50;;;22.90;84.20;;;;;;4986422;28;20272;-71
2023/11/29 05:08:37;;;;;;;17.43;3.60;;;22.80;84.40;;;;;;4984443;28;20210;-70
2023/11/29 05:11:05;;;;;;;5.57;1.70;;;22.80;84.50;;;;;;4989113;28;20182;-72
2023/11/29 05:13:33;;;;;;;3.60;1.40;;;22.30;79.10;;;;;;4991211;28;20201;-73
2023/11/29 05:16:03;;;;;;;9.60;2.10;;;21.00;79.40;;;;;;4990276;28;20182;-68
2023/11/29 05:18:30;;;;;;;8.50;2.13;;;20.20;84.70;;;;;;4990999;28;20181;-66
2023/11/29 05:20:58;;;;;;;3.83;1.80;;;19.30;86.10;;;;;;4990673;28;20213;-68
2023/11/29 05:23:26;;;;;;;5.33;2.27;;;18.70;87.00;;;;;;4988187;28;20197;-68
2023/11/29 05:25:54;;;;;;;5.00;3.07;;;18.50;88.50;;;;;;4991877;28;20275;-65
2023/11/29 05:28:25;;;;;;;5.77;3.20;;;18.50;89.20;;;;;;4991111;28;20222;-64
2023/11/29 05:30:53;;;;;;;6.57;4.00;;;18.40;89.90;;;;;;4993637;28;20606;-66
2023/11/29 05:33:25;;;;;;;5.70;3.93;;;18.40;90.40;;;;;;4988680;28;20189;-62
2023/11/29 05:35:56;;;;;;;7.00;5.47;;;18.40;90.00;;;;;;4989400;28;20199;-65
2023/11/29 05:38:24;;;;;;;7.30;5.40;;;18.30;90.80;;;;;;4987787;28;20181;-65
2023/11/29 05:40:51;;;;;;;7.93;6.77;;;18.30;91.20;;;;;;4988835;28;20195;-65
2023/11/29 05:43:19;;;;;;;7.57;6.97;;;18.50;91.70;;;;;;4989587;28;20178;-65
2023/11/29 05:45:46;;;;;;;9.60;8.57;;;18.60;91.70;;;;;;4983419;28;20200;-66
2023/11/29 05:48:13;;;;;;;11.77;10.83;;;18.80;92.40;;;;;;4990332;28;20214;-67
2023/11/29 05:50:41;;;;;;;12.27;11.30;;;18.80;92.10;;;;;;4988544;28;20190;-68
2023/11/29 05:53:08;;;;;;;14.30;13.17;;;18.80;92.50;;;;;;4989713;28;20190;-68
2023/11/29 05:55:35;;;;;;;14.97;13.97;;;18.80;92.50;;;;;;4988422;28;20215;-68
2023/11/29 05:58:06;;;;;;;16.63;15.17;;;18.80;92.40;;;;;;4989725;28;20216;-69
2023/11/29 06:00:33;;;;;;;14.83;13.67;;;18.80;92.80;;;;;;4987859;28;20174;-67
2023/11/29 06:03:00;;;;;;;13.73;12.63;;;18.80;92.90;;;;;;4987857;28;20193;-67
2023/11/29 06:05:28;;;;;;;14.63;13.63;;;19.00;93.40;;;;;;4989665;28;20551;-66
2023/11/29 06:07:55;;;;;;;15.97;14.60;;;19.10;93.30;;;;;;4987844;28;20213;-69
2023/11/29 06:10:22;;;;;;;15.63;14.33;;;19.20;93.60;;;;;;4987857;28;20194;-66
2023/11/29 06:12:49;;;;;;;14.17;13.03;;;19.30;93.60;;;;;;4971551;28;20185;-68
2023/11/29 06:15:18;;;;;;;14.20;13.10;;;19.30;93.20;;;;;;4988840;28;20174;-66
2023/11/29 06:17:45;;;;;;;16.50;15.30;;;19.10;93.20;;;;;;4989209;28;20228;-65
2023/11/29 06:20:13;;;;;;;15.93;14.83;;;19.00;93.10;;;;;;4988602;28;21475;-67
2023/11/29 06:22:41;;;;;;;18.23;16.70;;;19.10;93.20;;;;;;4988220;28;20237;-69
2023/11/29 06:25:08;;;;;;;18.97;17.67;;;19.10;93.40;;;;;;4988673;28;20781;-68
2023/11/29 06:27:36;;;;;;;19.50;18.00;;;19.30;93.50;;;;;;4987903;28;20197;-69
2023/11/29 06:30:04;;;;;;;20.67;19.03;;;19.30;93.60;;;;;;4987997;28;20189;-67
2023/11/29 06:32:31;;;;;;;26.00;24.20;;;19.30;93.40;;;;;;4982142;28;20186;-69
2023/11/29 06:34:59;;;;;;;25.67;24.00;;;19.20;93.40;;;;;;4986449;28;20255;-68
2023/11/29 06:37:26;;;;;;;26.53;24.83;;;19.20;93.50;;;;;;4986137;28;20182;-69
2023/11/29 06:39:54;;;;;;;24.70;23.03;;;19.20;93.50;;;;;;4989057;28;20245;-70
2023/11/29 06:42:21;;;;;;;31.40;29.40;;;19.10;93.30;;;;;;4990871;28;20273;-70
2023/11/29 06:44:48;;;;;;;29.57;27.67;;;19.20;93.70;;;;;;4987769;28;20196;-68
2023/11/29 06:50:38;;;;;;;30.07;28.10;;;19.10;93.50;;;;;;4990716;28;20205;-70
2023/11/29 06:53:07;;;;;;;27.83;26.13;;;19.10;93.70;;;;;;4990529;28;20208;-69
2023/11/29 07:09:06;;;;;;;36.83;34.23;;;19.10;93.80;;;;;;4985490;28;20280;-71
2023/11/29 07:11:36;;;;;;;44.50;41.37;;;18.90;93.40;;;;;;4991809;28;20186;-71
2023/11/29 07:14:42;;;;;;;51.77;48.07;;;18.80;93.70;;;;;;4991265;28;20217;-70
2023/11/29 07:18:05;;;;;;;57.17;53.67;;;18.80;93.70;;;;;;4992592;28;20708;-71
2023/11/29 07:20:32;;;;;;;59.63;56.20;;;18.80;93.80;;;;;;4992878;28;20658;-73
2023/11/29 07:23:00;;;;;;;64.30;60.57;;;18.80;94.10;;;;;;4989611;28;20218;-74
2023/11/29 07:25:27;;;;;;;78.03;73.57;;;18.80;94.10;;;;;;4990236;28;20364;-71
2023/11/29 07:27:54;;;;;;;77.27;73.07;;;18.70;94.10;;;;;;4994179;28;20217;-68
2023/11/29 07:30:22;;;;;;;71.87;67.90;;;18.70;94.30;;;;;;4992932;28;20200;-71
2023/11/29 07:32:49;;;;;;;81.80;77.27;;;18.70;94.40;;;;;;4993157;28;20189;-71
2023/11/29 07:35:17;;;;;;;71.47;67.33;;;18.80;94.50;;;;;;4992633;28;20296;-70
2023/11/29 07:37:44;;;;;;;69.60;65.73;;;18.80;94.40;;;;;;4988134;28;20231;-70
2023/11/29 07:40:12;;;;;;;78.90;74.50;;;18.80;94.60;;;;;;4992833;28;20276;-70
2023/11/29 07:42:39;;;;;;;86.30;81.77;;;18.80;94.60;;;;;;4991958;28;20195;-71
2023/11/29 07:45:07;;;;;;;92.13;87.20;;;19.00;94.80;;;;;;4974485;28;20523;-70
2023/11/29 07:47:34;;;;;;;87.30;82.33;;;19.00;94.70;;;;;;4992049;28;20198;-69
2023/11/29 07:50:02;;;;;;;92.90;87.60;;;19.00;94.70;;;;;;4988896;28;20202;-72
2023/11/29 07:52:29;;;;;;;96.63;91.27;;;19.00;94.70;;;;;;4993569;28;20182;-73
2023/11/29 07:54:58;;;;;;;88.57;83.57;;;19.00;94.80;;;;;;4992784;28;20277;-72
2023/11/29 07:57:25;;;;;;;87.80;82.87;;;19.00;94.70;;;;;;4991562;28;20240;-69
2023/11/29 07:59:52;;;;;;;91.97;86.70;;;18.90;94.70;;;;;;4993883;28;20654;-69
2023/11/29 08:02:20;;;;;;;94.37;89.13;;;19.00;94.80;;;;;;4993655;28;20178;-69
2023/11/29 08:04:47;;;;;;;99.90;94.63;;;19.00;94.80;;;;;;4993148;28;20650;-72
2023/11/29 08:07:14;;;;;;;112.03;105.97;;;19.00;94.80;;;;;;4992028;28;20557;-72
2023/11/29 08:09:44;;;;;;;102.07;96.67;;;19.10;94.90;;;;;;4993080;28;20217;-71
2023/11/29 08:12:13;;;;;;;111.50;105.63;;;19.10;94.80;;;;;;4992229;28;20182;-72
2023/11/29 08:14:40;;;;;;;119.57;112.77;;;19.00;94.80;;;;;;4993700;28;20182;-71
2023/11/29 08:17:07;;;;;;;129.00;122.40;;;19.00;94.80;;;;;;4992087;28;20232;-71
2023/11/29 08:19:35;;;;;;;122.60;116.23;;;19.00;94.90;;;;;;4989360;28;20196;-72
2023/11/29 08:22:03;;;;;;;121.20;114.90;;;19.00;94.80;;;;;;4989250;28;20186;-70
2023/11/29 08:25:21;;;;;;;130.13;123.30;;;18.90;94.90;;;;;;4991098;28;20230;-72
2023/11/29 08:28:39;;;;;;;140.57;133.10;;;18.90;94.90;;;;;;4989468;28;20305;-71
2023/11/29 08:31:11;;;;;;;152.30;144.23;;;18.90;94.90;;;;;;4987827;28;20179;-71
2023/11/29 08:33:38;;;;;;;139.50;131.80;;;18.90;94.90;;;;;;4991610;28;20190;-71
2023/11/29 08:36:06;;;;;;;151.27;143.23;;;18.90;94.90;;;;;;4987866;28;20198;-71
2023/11/29 08:38:33;;;;;;;152.37;144.50;;;18.90;95.00;;;;;;4987330;28;20213;-72
2023/11/29 08:41:00;;;;;;;163.57;155.27;;;19.00;95.00;;;;;;4988391;28;20189;-71
2023/11/29 08:43:28;;;;;;;160.67;152.50;;;19.00;95.00;;;;;;4992884;28;20189;-70
2023/11/29 08:45:55;;;;;;;166.60;158.20;;;18.90;95.00;;;;;;4992091;28;20174;-70
2023/11/29 08:48:22;;;;;;;168.77;159.77;;;19.00;95.10;;;;;;4988232;28;20570;-71
2023/11/29 08:50:50;;;;;;;157.27;149.07;;;18.90;95.00;;;;;;4984605;28;20714;-70
2023/11/29 08:53:18;;;;;;;161.40;153.10;;;18.80;95.00;;;;;;4992841;28;20212;-71
2023/11/29 08:55:46;;;;;;;168.50;159.80;;;18.80;95.00;;;;;;4988078;28;20179;-71
2023/11/29 08:58:13;;;;;;;166.17;157.27;;;18.80;95.00;;;;;;4989508;28;20254;-68
2023/11/29 09:00:41;;;;;;;166.37;157.43;;;18.80;95.00;;;;;;4987562;28;20679;-69
2023/11/29 09:03:10;;;;;;;182.73;173.50;;;18.80;95.10;;;;;;4989923;28;20200;-69
2023/11/29 09:05:40;;;;;;;182.93;173.53;;;18.80;95.10;;;;;;4991790;28;20640;-69
2023/11/29 09:08:07;;;;;;;183.43;173.93;;;18.90;95.10;;;;;;4989993;28;20240;-68
2023/11/29 09:10:37;;;;;;;197.97;188.07;;;19.00;95.20;;;;;;4994788;28;20194;-70
2023/11/29 09:13:08;;;;;;;200.33;190.37;;;19.10;95.20;;;;;;4989415;28;20190;-69
2023/11/29 09:15:35;;;;;;;205.00;194.70;;;19.10;95.20;;;;;;4991482;28;20288;-69
2023/11/29 09:18:04;;;;;;;201.67;191.40;;;19.10;95.20;;;;;;4988368;28;20185;-69
2023/11/29 09:20:31;;;;;;;217.30;206.30;;;19.10;95.20;;;;;;4990046;28;20178;-69
2023/11/29 09:22:58;;;;;;;235.47;223.90;;;19.10;95.20;;;;;;4988654;28;20217;-70
2023/11/29 09:25:26;;;;;;;214.93;204.47;;;19.20;95.20;;;;;;4988844;28;20707;-70
2023/11/29 09:27:53;;;;;;;228.77;217.47;;;19.10;95.20;;;;;;4991009;28;20206;-68
2023/11/29 09:30:21;;;;;;;235.77;224.20;;;19.10;95.20;;;;;;4985785;28;20190;-70
2023/11/29 09:32:48;;;;;;;234.63;223.20;;;19.10;95.20;;;;;;4987748;28;20348;-69
2023/11/29 09:35:15;;;;;;;229.93;218.37;;;19.20;95.30;;;;;;4990644;28;20190;-71
2023/11/29 09:37:43;;;;;;;246.37;234.43;;;19.10;95.20;;;;;;4989539;28;20217;-69
2023/11/29 09:40:11;;;;;;;244.10;232.17;;;19.10;95.20;;;;;;4985982;28;20727;-70
2023/11/29 09:42:38;;;;;;;261.60;248.53;;;19.20;95.20;;;;;;4990086;28;20189;-69
2023/11/29 09:45:20;;;;;;;259.70;246.63;;;19.10;95.20;;;;;;4985572;28;20181;-71
2023/11/29 09:47:48;;;;;;;258.70;245.33;;;19.20;95.30;;;;;;4989752;28;20177;-71
2023/11/29 09:50:17;;;;;;;259.17;246.17;;;19.20;95.30;;;;;;4987654;28;20279;-69
2023/11/29 09:52:44;;;;;;;268.10;255.03;;;19.20;95.30;;;;;;4990223;28;20190;-71
2023/11/29 09:55:12;;;;;;;272.23;258.93;;;19.20;95.30;;;;;;4988548;28;20236;-66
2023/11/29 09:57:40;;;;;;;286.10;272.00;;;19.20;95.30;;;;;;4990128;28;20601;-70
2023/11/29 10:00:12;;;;;;;274.07;260.63;;;19.10;95.30;;;;;;4988617;28;20228;-69
2023/11/29 10:02:40;;;;;;;271.33;257.60;;;19.10;95.30;;;;;;4989109;28;20186;-70
2023/11/29 10:05:08;;;;;;;256.77;244.03;;;19.10;95.30;;;;;;4989753;28;20182;-70
2023/11/29 10:07:36;;;;;;;280.10;266.27;;;19.10;95.30;;;;;;4986798;28;20186;-70
2023/11/29 10:10:07;;;;;;;263.20;250.07;;;19.00;95.30;;;;;;4968735;28;20190;-70
2023/11/29 10:12:42;;;;;;;281.60;268.00;;;19.00;95.30;;;;;;4987598;28;20276;-70
2023/11/29 10:15:10;;;;;;;278.73;264.97;;;19.00;95.30;;;;;;4989416;28;20193;-70
2023/11/29 10:17:38;;;;;;;279.60;265.70;;;19.00;95.30;;;;;;4989672;28;20216;-70
2023/11/29 10:20:07;;;;;;;293.77;279.57;;;19.00;95.40;;;;;;4989435;28;20190;-71
2023/11/29 10:22:35;;;;;;;298.93;284.17;;;19.00;95.40;;;;;;4990068;28;20221;-71
2023/11/29 10:31:04;;;;;;;312.23;296.53;;;18.90;95.30;;;;;;4987909;28;20213;-70
2023/11/29 10:33:32;;;;;;;297.90;282.03;;;18.80;95.30;;;;;;4994241;28;20263;-72
2023/11/29 10:36:02;;;;;;;302.77;287.10;;;18.80;95.30;;;;;;4985942;28;20186;-69
2023/11/29 10:38:33;;;;;;;301.13;286.30;;;18.70;95.30;;;;;;4991624;28;20193;-72
2023/11/29 10:41:02;;;;;;;297.87;282.50;;;18.80;95.40;;;;;;4984272;28;20193;-71
2023/11/29 10:43:34;;;;;;;308.33;292.73;;;18.80;95.30;;;;;;4986896;28;20190;-70
2023/11/29 10:46:24;;;;;;;313.43;297.40;;;18.60;95.30;;;;;;4986976;28;20206;-72
2023/11/29 10:49:04;;;;;;;323.47;307.73;;;18.60;95.40;;;;;;4987995;28;20220;-69
2023/11/29 10:51:33;;;;;;;326.10;308.37;;;18.60;95.40;;;;;;4994318;28;20332;-70
2023/11/29 10:54:01;;;;;;;322.70;306.23;;;18.60;95.40;;;;;;4977405;28;20269;-69
2023/11/29 10:56:31;;;;;;;334.60;317.10;;;18.60;95.40;;;;;;4975757;28;20554;-68
2023/11/29 10:59:05;;;;;;;323.33;306.37;;;18.50;95.40;;;;;;4975467;28;20228;-68
2023/11/29 11:01:34;;;;;;;324.47;307.90;;;18.50;95.40;;;;;;4989299;28;20197;-69
2023/11/29 11:04:03;;;;;;;314.50;297.63;;;18.50;95.50;;;;;;4988719;28;20185;-69
2023/11/29 11:06:30;;;;;;;319.83;302.43;;;18.40;95.40;;;;;;4992237;28;20628;-68
2023/11/29 11:09:01;;;;;;;319.87;303.63;;;18.40;95.40;;;;;;4992668;28;20209;-69
2023/11/29 11:11:41;;;;;;;329.43;311.50;;;18.40;95.40;;;;;;4983881;28;20191;-69
2023/11/29 11:14:23;;;;;;;339.77;321.77;;;18.40;95.50;;;;;;4992371;28;20197;-68
2023/11/29 11:17:18;;;;;;;348.83;330.37;;;18.30;95.50;;;;;;4990201;28;20186;-70
2023/11/29 11:19:47;;;;;;;360.13;342.00;;;18.40;95.50;;;;;;4990842;28;20186;-68
2023/11/29 11:22:24;;;;;;;356.93;338.63;;;18.40;95.50;;;;;;4992271;28;20193;-70
2023/11/29 11:24:59;;;;;;;361.00;342.37;;;18.40;95.50;;;;;;4988426;28;20221;-71
2023/11/29 11:27:38;;;;;;;378.43;358.87;;;18.40;95.50;;;;;;4989238;28;20205;-72
2023/11/29 11:30:16;;;;;;;389.90;370.13;;;18.30;95.50;;;;;;4974861;28;20577;-70
2023/11/29 11:32:50;;;;;;;391.00;371.17;;;18.30;95.50;;;;;;4987934;28;20563;-69
2023/11/29 11:35:18;;;;;;;382.00;361.87;;;18.40;95.50;;;;;;4991899;28;20182;-70
2023/11/29 11:37:47;;;;;;;397.83;377.47;;;18.30;95.50;;;;;;4992438;28;20194;-72
2023/11/29 11:40:15;;;;;;;411.33;390.03;;;18.30;95.60;;;;;;4991893;28;20661;-70
2023/11/29 11:42:44;;;;;;;400.97;380.73;;;18.30;95.60;;;;;;4993667;28;20189;-71
2023/11/29 11:45:13;;;;;;;415.90;394.43;;;18.30;95.50;;;;;;4988778;28;20266;-71
2023/11/29 11:47:44;;;;;;;426.77;404.33;;;18.40;95.60;;;;;;4991025;28;20185;-70
2023/11/29 11:50:13;;;;;;;421.33;399.87;;;18.40;95.60;;;;;;4991167;28;20316;-69
2023/11/29 11:52:41;;;;;;;421.17;399.77;;;18.30;95.60;;;;;;4989880;28;20233;-69
2023/11/29 11:55:10;;;;;;;421.53;399.60;;;18.40;95.60;;;;;;4993139;28;20186;-70
2023/11/29 11:57:39;;;;;;;432.93;410.87;;;18.40;95.60;;;;;;4984784;28;20190;-69
2023/11/29 12:00:08;;;;;;;440.83;418.33;;;18.40;95.60;;;;;;4993854;28;20700;-72
2023/11/29 12:02:36;;;;;;;427.27;405.33;;;18.40;95.60;;;;;;4990811;28;20248;-71
2023/11/29 12:05:04;;;;;;;436.67;414.40;;;18.40;95.60;;;;;;4991084;28;20678;-69
2023/11/29 12:07:32;;;;;;;446.30;423.67;;;18.40;95.70;;;;;;4992776;28;20224;-70
2023/11/29 12:09:59;;;;;;;453.80;430.67;;;18.40;95.70;;;;;;4990633;28;20214;-70
2023/11/29 12:12:28;;;;;;;467.83;444.00;;;18.40;95.70;;;;;;4993964;28;20182;-71
2023/11/29 12:14:56;;;;;;;461.00;437.83;;;18.30;95.60;;;;;;4991596;28;20199;-70
2023/11/29 12:17:23;;;;;;;464.80;441.07;;;18.30;95.60;;;;;;4991397;28;20649;-68
2023/11/29 12:19:51;;;;;;;468.33;444.00;;;18.40;95.70;;;;;;4989093;28;20186;-71
2023/11/29 12:22:18;;;;;;;465.50;442.10;;;18.40;95.70;;;;;;4992283;28;20194;-71
2023/11/29 12:24:46;;;;;;;464.93;441.60;;;18.30;95.60;;;;;;4992939;28;20543;-71
2023/11/29 12:28:04;;;;;;;471.37;447.77;;;18.30;95.70;;;;;;4975158;28;20241;-72
2023/11/29 12:30:58;;;;;;;471.37;447.40;;;18.30;95.70;;;;;;4987441;28;20186;-71
2023/11/29 12:33:26;;;;;;;473.13;448.47;;;18.30;95.70;;;;;;4991122;28;20689;-70
2023/11/29 12:35:54;;;;;;;488.93;464.27;;;18.30;95.70;;;;;;4973084;28;20188;-71
2023/11/29 12:38:21;;;;;;;489.93;464.47;;;18.30;95.70;;;;;;4986521;28;20178;-70
2023/11/29 12:40:49;;;;;;;498.80;473.60;;;18.30;95.70;;;;;;4992697;28;20247;-70
2023/11/29 12:43:17;;;;;;;491.20;466.93;;;18.30;95.70;;;;;;4991422;28;20730;-71
2023/11/29 12:45:45;;;;;;;500.07;474.53;;;18.40;95.70;;;;;;4993415;28;21640;-69
2023/11/29 12:48:12;;;;;;;511.73;485.63;;;18.30;95.70;;;;;;4995514;28;20684;-71
2023/11/29 12:50:39;;;;;;;503.93;478.40;;;18.30;95.70;;;;;;4991581;28;20182;-71
2023/11/29 12:53:07;;;;;;;508.37;482.43;;;18.40;95.80;;;;;;4988190;28;20194;-70
2023/11/29 12:55:34;;;;;;;512.27;486.27;;;18.40;95.80;;;;;;4991636;28;20225;-70
2023/11/29 12:58:05;;;;;;;512.37;486.20;;;18.50;95.80;;;;;;4991944;28;20272;-71